If you wish to contribute or participate in the discussions about articles you are invited to join SKYbrary as a registered user

 Actions

Salzburg

From SKYbrary Wiki

LOWS
Airport
ICAO: LOWS
Summary
Name Salzburg
Region Europe
Territory Austria AT.gif
Location Salzburg
Serving
Coordinates 47° 47' 42.00" N, 13° 0' 12.00" E
Runways
Designator Length Width Surface ROPS
16/34 2750 m9,022.31 ft
45 m147.638 ft
CON no/no


METAR
Observation LOWS 141520Z 19003KT 160V220 CAVOK 18/11 Q1014 NOSIG
Station Salzburg-Flughafen
Date/Time 14 October 2019 15:20:00
Wind direction 190°
Wind speed 03 kts
Lowest cloud amount clouds and visibility OK
Temperature 18°C
Dew point 11°C
Humidity 63%
QNH 1014 hPa
Weather condition n/a

Salzburg Airport

ICAO: LOWS IATA: SZG

Description

International airport serving Salzburg.

Climatology

Temperate Marine climate/Oceanic climate (Köppen climate classification Cfb). Moderately cool summer and comparatively warm winter.

Maps

Terrain

Loading map...

Airport Layout

Loading map...


Accidents & Serious Incidents at or in vicinity of LOWS

None on SKYbrary